Flight Track Log - Related Links

Times and Time Zones

All times are in EDT time to prevent confusion due to time zone crossing. See the DLH3 flight status page for this flight to view local times or setup timezone preferences in your user account.

Time Position Orientation Groundspeed Altitude Reporting Facility
EDT Latitude Longitude Course Direction KTS MPH feet Rate Location/Type
Mon 12:41:00 AM 53.2793 9.8365 194° South  Level Estimated
Mon 12:42:00 AM 53.1915 9.7990 194° South  Level Estimated
Mon 12:43:00 AM 53.1037 9.7616 194° South  Level Estimated
Mon 12:44:00 AM 53.0159 9.7244 194° South  Level Estimated
Mon 12:45:00 AM 52.9281 9.6873 194° South  Level Estimated
Mon 12:46:00 AM 52.8402 9.6504 194° South  Level Estimated
Mon 12:47:00 AM 52.7524 9.6136 194° South  Level Estimated
Mon 12:48:00 AM 52.6645 9.5770 194° South  Level Estimated
Mon 12:49:00 AM 52.5766 9.5405 194° South  Level Estimated
Mon 12:50:00 AM 52.4887 9.5042 194° South  Level Estimated
Mon 12:51:00 AM 52.4008 9.4680 194° South  Level Estimated
Mon 12:52:00 AM 52.3129 9.4319 194° South  Level Estimated
Mon 12:53:00 AM 52.2250 9.3960 194° South  Level Estimated
Mon 12:54:00 AM 52.1371 9.3603 194° South  Level Estimated
Mon 12:55:00 AM 52.0491 9.3246 194° South  Level Estimated
Mon 12:56:00 AM 51.9612 9.2892 194° South  Level Estimated
Mon 12:57:00 AM 51.8732 9.2538 194° South  Level Estimated
Mon 12:58:00 AM 51.7852 9.2186 194° South  Level Estimated
Mon 12:59:00 AM 51.6973 9.1835 194° South  Level Estimated
Mon 01:00:00 AM 51.6093 9.1486 194° South  Level Estimated
Mon 01:01:00 AM 51.5213 9.1138 194° South  Level Estimated
Mon 01:02:00 AM 51.4332 9.0792 194° South  Level Estimated
Mon 01:03:00 AM 51.3452 9.0446 194° South  Level Estimated
Mon 01:04:00 AM 51.2572 9.0102 194° South  Level Estimated
Mon 01:05:00 AM 51.1691 8.9760 194° South  Level Estimated
Mon 01:06:00 AM 51.0811 8.9418 194° South  Level Estimated
Mon 01:07:00 AM 50.9930 8.9078 194° South  Level Estimated
Mon 01:08:00 AM 50.9049 8.8740 194° South  Level Estimated
Mon 01:09:00 AM 50.8168 8.8402 194° South  Level Estimated
Mon 01:10:00 AM 50.7287 8.8066 194° South  Level Estimated
Mon 01:11:00 AM 50.6406 8.7731 194° South  Level Estimated
Mon 01:12:00 AM 50.5525 8.7397 194° South  Level Estimated
Mon 01:13:00 AM 50.4644 8.7065 194° South  Level Estimated
Mon 01:14:00 AM 50.3763 8.6734 193° South  Level Estimated
Mon 01:15:00 AM 50.2881 8.6404 193° South  Level Estimated
Mon 01:16:00 AM 50.2000 8.6075 193° South  Level Estimated
Mon 01:17:00 AM 50.1118 8.5747 193° South  Level Estimated
Mon 01:18:00 AM 50.0264 8.5431 193° South  Level Estimated
Mon 01:19:00 AM 50.0264 8.5431 North  Level Estimated
Mon 01:20:00 AM 50.0264 8.5431 North  Level Estimated
Mon 01:21:00 AM 50.0264 8.5431 North  Level Estimated
Mon 01:22:00 AM 50.0264 8.5431 North  Level Estimated
Mon 01:23:00 AM 50.0264 8.5431 North  Level Estimated
Mon 01:24:00 AM 50.0264 8.5431 North  Level Estimated
Mon 01:25:00 AM 50.0264 8.5431 North  Level Estimated
Mon 01:26:00 AM 50.0264 8.5431 North  Level Estimated
Mon 01:27:00 AM 50.0264 8.5431 North  Level Estimated
Mon 01:28:00 AM 50.0264 8.5431 North  Level Estimated
Mon 01:29:00 AM 50.0264 8.5431 North  Level Estimated
Mon 01:30:00 AM 50.0264 8.5431 North  Level Estimated
Mon 01:31:00 AM 50.0264 8.5431 North  Level Estimated
Mon 01:32:00 AM 50.0264 8.5431 North  Level Estimated
Mon 01:33:00 AM 50.0264 8.5431 North  Level Estimated
Mon 01:34:00 AM 50.0264 8.5431 North  Level Estimated

Login

Don't have an account? Register now (free) for customized features, flight alerts, and more!